Time;durP1;ratioP1;P1;durP2;ratioP2;P2;SDS_P1;SDS_P2;PMS_P1;PMS_P2;Temp;Humidity;BMP_temperature;BMP_pressure;BME280_temperature;BME280_humidity;BME280_pressure;Samples;Min_cycle;Max_cycle;Signal;HPM_P1;HPM_P2
2023/03/24 00:01:01;;;;;;;3.83;2.37;;;;;;;11.60;84.40;94730.41;6289227;22;20169;-82
2023/03/24 00:03:28;;;;;;;3.80;2.80;;;;;;;11.54;84.60;94733.69;6314474;22;20151;-82
2023/03/24 00:06:00;;;;;;;5.10;2.40;;;;;;;11.55;84.74;94722.31;6314168;22;20156;-84
2023/03/24 00:08:30;;;;;;;3.63;2.73;;;;;;;11.24;86.36;94722.38;6290223;22;20175;-83
2023/03/24 00:11:00;;;;;;;2.80;2.40;;;;;;;11.49;85.03;94717.03;6290130;22;20222;-84
2023/03/24 00:13:27;;;;;;;2.93;2.63;;;;;;;11.51;84.88;94705.44;6290647;22;20247;-83
2023/03/24 00:15:52;;;;;;;3.47;2.43;;;;;;;11.38;85.34;94709.59;6316278;22;20600;-83
2023/03/24 00:18:21;;;;;;;5.47;2.70;;;;;;;11.50;84.77;94710.84;6289329;22;20194;-83
2023/03/24 00:20:47;;;;;;;3.03;2.63;;;;;;;11.49;85.09;94712.63;6315918;22;20682;-84
2023/03/24 00:23:14;;;;;;;2.30;2.10;;;;;;;11.48;85.15;94707.56;6342422;22;20151;-83
2023/03/24 00:25:43;;;;;;;3.20;2.60;;;;;;;11.42;85.07;94695.28;6316273;22;20178;-84
2023/03/24 00:28:10;;;;;;;4.03;2.80;;;;;;;11.26;85.51;94707.41;6291537;22;20642;-83
2023/03/24 00:30:35;;;;;;;4.73;3.23;;;;;;;11.44;84.69;94704.53;6317855;22;20171;-82
2023/03/24 00:33:00;;;;;;;3.77;2.50;;;;;;;11.57;83.87;94711.72;6291928;22;20188;-84
2023/03/24 00:35:26;;;;;;;5.23;2.70;;;;;;;11.51;84.65;94705.44;6340974;22;20148;-83
2023/03/24 00:37:52;;;;;;;3.47;2.50;;;;;;;11.55;84.42;94698.09;6291957;22;20171;-84
2023/03/24 00:40:19;;;;;;;2.63;2.40;;;;;;;11.48;85.27;94694.56;6343492;22;20201;-83
2023/03/24 00:42:45;;;;;;;4.13;3.00;;;;;;;11.44;85.38;94688.13;6291731;22;20147;-83
2023/03/24 00:45:14;;;;;;;3.10;2.80;;;;;;;11.25;86.22;94679.78;6291370;22;20157;-85
2023/03/24 00:47:39;;;;;;;4.33;2.63;;;;;;;11.23;86.70;94671.38;6293859;22;20178;-84
2023/03/24 00:50:08;;;;;;;2.60;2.40;;;;;;;11.21;86.54;94675.91;6290592;22;20247;-84
2023/03/24 00:52:34;;;;;;;2.70;2.47;;;;;;;11.40;85.67;94672.06;6320030;22;20163;-84
2023/03/24 00:55:03;;;;;;;3.17;2.73;;;;;;;11.34;85.98;94668.38;6344661;22;20209;-84
2023/03/24 00:57:33;;;;;;;3.37;2.93;;;;;;;11.43;85.51;94666.50;6293549;22;20183;-83
2023/03/24 01:00:13;;;;;;;4.53;2.87;;;;;;;11.37;85.53;94658.59;6318518;22;20203;-83
2023/03/24 01:02:38;;;;;;;3.33;2.83;;;;;;;11.34;85.31;94655.38;6317551;22;20166;-85
2023/03/24 01:05:05;;;;;;;3.00;2.70;;;;;;;11.30;84.88;94653.28;6316998;22;20202;-84
2023/03/24 01:07:30;;;;;;;3.73;3.10;;;;;;;11.31;84.69;94647.13;6292175;22;20505;-84
2023/03/24 01:09:56;;;;;;;3.80;3.00;;;;;;;11.31;84.64;94652.31;6291893;22;20167;-83
2023/03/24 01:12:27;;;;;;;3.30;3.00;;;;;;;11.33;84.96;94650.34;6317923;22;20160;-83
2023/03/24 01:14:53;;;;;;;3.63;2.93;;;;;;;11.15;86.11;94647.22;6291113;22;20156;-84
2023/03/24 01:17:21;;;;;;;4.97;3.30;;;;;;;11.23;86.15;94637.59;6293036;22;20232;-84
2023/03/24 01:19:47;;;;;;;4.77;2.93;;;;;;;11.25;85.70;94647.81;6316937;22;20159;-84
2023/03/24 01:22:12;;;;;;;3.50;3.20;;;;;;;11.21;85.99;94633.53;6344510;22;20148;-84
2023/03/24 01:24:38;;;;;;;7.67;2.93;;;;;;;11.25;85.52;94637.41;6342662;22;20190;-83
2023/03/24 01:27:04;;;;;;;3.90;2.93;;;;;;;11.37;84.65;94630.81;6343675;22;20178;-84
2023/03/24 01:29:29;;;;;;;3.80;2.73;;;;;;;11.26;84.62;94629.44;6343415;22;20770;-83
2023/03/24 01:31:54;;;;;;;5.50;3.17;;;;;;;11.32;84.54;94626.16;6343740;22;20155;-84
2023/03/24 01:34:20;;;;;;;4.00;2.83;;;;;;;11.35;84.09;94622.38;6344283;22;20152;-83
2023/03/24 01:36:45;;;;;;;4.03;3.00;;;;;;;11.35;83.91;94624.97;6342280;22;20568;-84
2023/03/24 01:39:10;;;;;;;4.40;2.80;;;;;;;11.39;84.03;94623.63;6317081;22;20143;-84
2023/03/24 01:41:37;;;;;;;4.47;3.00;;;;;;;11.40;83.85;94620.06;6343896;22;20155;-84
2023/03/24 01:44:29;;;;;;;3.13;2.53;;;;;;;11.39;83.34;94615.84;6318434;22;20462;-84
2023/03/24 01:46:56;;;;;;;4.57;2.60;;;;;;;11.38;83.21;94618.63;6343267;22;20215;-84
2023/03/24 01:49:23;;;;;;;3.70;2.80;;;;;;;11.27;83.94;94609.44;6292447;22;20523;-84
2023/03/24 01:51:52;;;;;;;4.03;3.07;;;;;;;11.40;83.49;94606.28;6321491;22;20267;-83
2023/03/24 01:54:21;;;;;;;3.03;2.50;;;;;;;11.52;82.79;94607.47;6317891;22;20159;-84
2023/03/24 01:56:56;;;;;;;3.00;2.70;;;;;;;11.47;83.02;94605.38;6291783;22;20181;-83
2023/03/24 01:59:30;;;;;;;4.43;2.90;;;;;;;11.42;83.40;94602.50;6292555;22;20150;-84
2023/03/24 02:02:01;;;;;;;4.43;3.00;;;;;;;11.38;83.87;94601.22;6292498;22;20158;-84
2023/03/24 02:04:29;;;;;;;3.20;2.90;;;;;;;11.39;83.63;94596.84;6343601;22;20140;-83
2023/03/24 02:06:56;;;;;;;3.30;2.93;;;;;;;11.42;83.70;94602.50;6293137;22;20151;-82
2023/03/24 02:09:21;;;;;;;3.70;2.90;;;;;;;11.27;84.41;94597.25;6292411;22;20195;-84
2023/03/24 02:11:46;;;;;;;3.00;2.60;;;;;;;11.21;84.32;94594.53;6293024;22;20166;-84
2023/03/24 02:14:12;;;;;;;3.73;2.80;;;;;;;11.18;84.88;94589.69;6293415;22;20158;-84
2023/03/24 02:16:56;;;;;;;3.23;2.93;;;;;;;11.18;84.77;94590.50;6292666;22;20193;-84
2023/03/24 02:19:37;;;;;;;3.67;2.80;;;;;;;11.07;85.44;94594.34;6319393;22;20163;-84
2023/03/24 02:22:21;;;;;;;3.67;2.67;;;;;;;10.96;85.96;94584.34;6318847;22;20605;-83
2023/03/24 02:25:30;;;;;;;4.33;2.67;;;;;;;11.04;85.74;94592.09;6347113;22;20196;-84
2023/03/24 02:28:12;;;;;;;2.93;2.63;;;;;;;10.95;86.04;94589.69;6321357;22;20185;-84
2023/03/24 02:30:57;;;;;;;3.57;2.80;;;;;;;11.01;86.03;94597.63;6321006;22;20437;-84
2023/03/24 02:33:34;;;;;;;3.53;2.77;;;;;;;11.01;86.29;94592.41;6347725;22;20143;-84
2023/03/24 02:36:24;;;;;;;2.90;2.60;;;;;;;11.02;86.39;94596.63;6320671;22;20189;-83
2023/03/24 02:39:16;;;;;;;3.50;2.70;;;;;;;11.09;85.68;94601.16;6320526;22;20171;-84
2023/03/24 02:42:14;;;;;;;4.37;2.60;;;;;;;11.06;86.48;94600.50;6321223;22;20465;-83
2023/03/24 02:45:04;;;;;;;3.03;2.53;;;;;;;11.15;86.74;94593.47;6344843;22;20140;-82
2023/03/24 02:48:27;;;;;;;3.10;2.40;;;;;;;11.27;86.01;94583.47;6321286;22;20195;-83
2023/03/24 02:50:58;;;;;;;2.73;2.43;;;;;;;11.29;85.88;94581.47;6202845;23;20516;-83
2023/03/24 02:53:58;;;;;;;3.73;2.40;;;;;;;11.35;85.82;94576.41;6202506;23;20189;-84
2023/03/24 02:56:32;;;;;;;2.63;2.40;;;;;;;11.31;85.95;94563.94;6190684;23;20158;-83
2023/03/24 02:59:02;;;;;;;2.80;2.50;;;;;;;11.39;85.79;94563.03;6190268;23;20198;-82
2023/03/24 03:01:52;;;;;;;2.87;2.30;;;;;;;11.48;85.66;94560.19;6141090;23;20159;-83
2023/03/24 03:04:22;;;;;;;4.80;2.20;;;;;;;11.45;85.79;94563.16;6167684;23;20218;-83
2023/03/24 03:06:52;;;;;;;6.03;2.40;;;;;;;11.27;87.01;94567.88;6166842;23;20620;-84
2023/03/24 03:09:18;;;;;;;2.63;2.23;;;;;;;11.40;86.53;94547.28;6166890;23;20177;-83
2023/03/24 03:11:47;;;;;;;3.47;2.30;;;;;;;11.50;86.46;94540.03;6166172;23;20167;-84
2023/03/24 03:14:17;;;;;;;2.70;2.40;;;;;;;11.47;86.50;94542.19;6190864;23;20194;-82
2023/03/24 03:16:47;;;;;;;3.23;2.43;;;;;;;11.46;86.90;94530.97;6140501;23;20202;-83
2023/03/24 03:19:25;;;;;;;2.80;2.30;;;;;;;11.49;86.25;94533.22;6142161;23;20163;-84
2023/03/24 03:21:51;;;;;;;2.70;2.40;;;;;;;11.58;85.82;94524.38;6184696;23;20161;-83
2023/03/24 03:24:25;;;;;;;2.60;2.10;;;;;;;11.63;85.77;94531.63;6227038;23;20707;-83
2023/03/24 03:26:56;;;;;;;2.63;2.10;;;;;;;11.68;85.58;94525.91;6226421;23;20161;-83
2023/03/24 03:29:24;;;;;;;2.53;2.30;;;;;;;11.72;85.03;94540.13;6227230;23;20188;-83
2023/03/24 03:31:58;;;;;;;3.40;2.20;;;;;;;11.60;85.91;94548.38;6227159;22;20161;-84
2023/03/24 03:34:27;;;;;;;2.57;2.37;;;;;;;11.69;85.66;94543.09;6347024;22;20127;-83
2023/03/24 03:37:02;;;;;;;3.10;2.10;;;;;;;11.59;85.70;94546.78;6318551;22;20155;-84
2023/03/24 03:39:30;;;;;;;3.23;2.07;;;;;;;11.66;85.37;94556.44;6345461;22;20138;-83
2023/03/24 03:41:56;;;;;;;2.83;2.10;;;;;;;11.67;84.87;94553.69;6292880;22;20212;-83
2023/03/24 03:44:21;;;;;;;2.40;2.20;;;;;;;11.60;84.94;94556.19;6344607;22;20155;-83
2023/03/24 03:46:46;;;;;;;2.50;2.30;;;;;;;11.59;85.80;94545.97;6318042;22;20157;-84
2023/03/24 03:49:12;;;;;;;3.07;2.33;;;;;;;11.40;86.38;94555.09;6344668;22;20229;-83
2023/03/24 03:51:37;;;;;;;3.37;2.40;;;;;;;11.35;86.74;94554.81;6344448;22;20159;-83
2023/03/24 03:54:05;;;;;;;3.00;2.47;;;;;;;11.27;86.78;94545.28;6344944;22;20214;-83
2023/03/24 03:56:33;;;;;;;3.70;2.90;;;;;;;11.26;87.37;94543.66;6293629;22;20151;-84
2023/03/24 03:58:58;;;;;;;3.47;2.07;;;;;;;11.10;86.71;94541.19;6293051;22;20232;-83
2023/03/24 04:01:26;;;;;;;2.90;2.70;;;;;;;11.24;86.87;94552.63;6345095;22;20159;-82
2023/03/24 04:04:36;;;;;;;3.57;2.93;;;;;;;11.19;86.68;94555.75;6345986;22;20151;-83
2023/03/24 04:07:10;;;;;;;3.60;2.73;;;;;;;11.21;87.37;94558.97;6222688;23;20296;-83
2023/03/24 04:09:52;;;;;;;3.63;2.63;;;;;;;11.18;87.08;94559.31;6223722;23;20200;-84
2023/03/24 04:12:17;;;;;;;3.23;2.43;;;;;;;11.11;87.55;94560.19;6200188;23;20716;-83
2023/03/24 04:15:10;;;;;;;3.97;2.70;;;;;;;11.11;87.63;94566.19;6223154;23;20157;-84
2023/03/24 04:18:01;;;;;;;3.40;2.40;;;;;;;11.13;87.42;94568.63;6222264;23;20189;-84
2023/03/24 04:20:45;;;;;;;2.60;2.23;;;;;;;11.20;86.85;94566.94;6242340;23;20282;-84
2023/03/24 04:23:32;;;;;;;3.13;2.67;;;;;;;11.25;87.19;94564.63;6198352;23;20166;-83
2023/03/24 04:26:05;;;;;;;3.10;2.27;;;;;;;11.24;86.72;94556.03;6222400;23;20164;-84
2023/03/24 04:28:57;;;;;;;2.97;2.50;;;;;;;11.37;86.80;94552.81;6198043;23;20177;-84
2023/03/24 04:31:30;;;;;;;2.80;2.50;;;;;;;11.39;86.30;94556.06;6222643;23;20196;-83
2023/03/24 04:34:02;;;;;;;3.20;2.90;;;;;;;11.39;86.39;94569.03;6247974;23;20154;-84
2023/03/24 04:36:43;;;;;;;4.37;2.30;;;;;;;11.41;85.95;94572.31;6199119;23;20497;-83
2023/03/24 04:39:15;;;;;;;3.70;2.50;;;;;;;11.40;85.69;94575.09;6317365;22;20505;-85
2023/03/24 04:41:42;;;;;;;2.77;2.37;;;;;;;11.38;85.69;94577.03;6316878;22;20155;-84
2023/03/24 04:44:09;;;;;;;3.10;2.60;;;;;;;11.35;86.09;94591.19;6317827;22;20523;-84
2023/03/24 04:46:34;;;;;;;3.17;2.23;;;;;;;11.34;86.31;94605.19;6315986;22;20151;-83
2023/03/24 04:49:01;;;;;;;4.97;2.47;;;;;;;11.32;87.24;94602.75;6316420;22;20194;-83
2023/03/24 04:51:28;;;;;;;3.37;2.20;;;;;;;11.34;87.95;94625.97;6343446;22;20159;-83
2023/03/24 04:53:53;;;;;;;2.83;2.10;;;;;;;11.32;88.69;94633.13;6291998;22;20151;-83
2023/03/24 04:56:33;;;;;;;2.47;2.00;;;;;;;11.46;88.54;94650.56;6342566;22;20151;-82
2023/03/24 04:58:59;;;;;;;3.57;2.73;;;;;;;11.34;89.82;94657.16;6291788;22;20174;-83
2023/03/24 05:01:29;;;;;;;5.70;2.90;;;;;;;11.28;91.01;94661.25;6317663;22;20159;-82
2023/03/24 05:03:56;;;;;;;4.43;3.30;;;;;;;11.35;91.39;94661.38;6292577;22;20155;-82
2023/03/24 05:06:21;;;;;;;4.60;3.80;;;;;;;11.39;92.22;94652.22;6316212;22;20171;-82
2023/03/24 05:08:46;;;;;;;4.90;4.00;;;;;;;11.37;93.26;94662.00;6322112;22;20179;-82
2023/03/24 05:11:12;;;;;;;6.47;4.40;;;;;;;11.28;94.85;94661.25;6347369;22;20160;-83
2023/03/24 05:13:37;;;;;;;5.27;4.50;;;;;;;11.36;94.64;94662.97;6347283;22;20518;-81
2023/03/24 05:16:02;;;;;;;5.27;4.40;;;;;;;11.40;94.71;94653.88;6319735;22;20501;-83
2023/03/24 05:18:28;;;;;;;5.33;4.27;;;;;;;11.35;95.99;94643.97;6346162;22;20190;-82
2023/03/24 05:20:53;;;;;;;5.20;4.17;;;;;;;11.34;96.18;94638.97;6345720;22;20147;-82
2023/03/24 05:23:18;;;;;;;5.90;4.90;;;;;;;11.30;96.24;94646.28;6313414;22;20170;-82
2023/03/24 05:25:45;;;;;;;4.60;4.20;;;;;;;11.38;95.93;94658.41;6316330;22;20154;-83
2023/03/24 05:28:11;;;;;;;5.73;4.23;;;;;;;11.34;95.96;94662.34;6290305;22;20182;-81
2023/03/24 05:30:36;;;;;;;7.27;4.67;;;;;;;11.23;96.74;94675.75;6344686;22;20171;-82
2023/03/24 05:33:05;;;;;;;7.53;4.83;;;;;;;11.09;98.77;94673.88;6345224;22;20193;-81
2023/03/24 05:35:30;;;;;;;5.50;4.33;;;;;;;11.06;99.04;94667.25;6292109;22;20156;-84
2023/03/24 05:37:55;;;;;;;5.73;4.60;;;;;;;11.14;97.80;94671.59;6344585;22;20197;-82
2023/03/24 05:40:21;;;;;;;7.57;4.60;;;;;;;11.14;97.84;94662.00;6318307;22;20175;-83
2023/03/24 05:42:50;;;;;;;5.00;4.47;;;;;;;11.15;98.16;94665.41;6318816;22;20155;-82
2023/03/24 05:45:16;;;;;;;4.93;4.17;;;;;;;11.13;98.31;94655.19;6317258;22;20160;-83
2023/03/24 05:47:41;;;;;;;4.40;4.00;;;;;;;11.03;98.90;94654.59;6320966;22;20236;-83
2023/03/24 05:50:06;;;;;;;5.27;4.40;;;;;;;11.24;97.38;94656.59;6344250;22;20498;-83
2023/03/24 05:52:33;;;;;;;6.13;3.90;;;;;;;11.25;97.11;94663.41;6291174;22;20514;-83
2023/03/24 05:54:59;;;;;;;6.73;4.40;;;;;;;11.30;96.72;94655.88;6342156;22;20505;-82
2023/03/24 05:57:25;;;;;;;5.13;4.17;;;;;;;11.18;97.87;94655.47;6316004;22;20613;-82
2023/03/24 05:59:51;;;;;;;4.60;4.17;;;;;;;11.27;97.15;94656.22;6318285;22;20168;-83
2023/03/24 06:02:16;;;;;;;4.40;4.00;;;;;;;11.07;97.96;94651.50;6317728;22;20155;-83
2023/03/24 06:04:47;;;;;;;5.23;3.87;;;;;;;11.28;97.18;94648.25;6292670;22;20159;-83
2023/03/24 06:07:13;;;;;;;4.90;4.13;;;;;;;11.29;97.73;94649.06;6293341;22;20175;-81
2023/03/24 06:09:41;;;;;;;6.00;4.43;;;;;;;11.46;97.37;94645.34;6292305;22;20171;-83
2023/03/24 06:12:08;;;;;;;4.30;3.80;;;;;;;11.39;97.84;94630.63;6292822;22;20163;-82
2023/03/24 06:14:33;;;;;;;3.97;3.57;;;;;;;11.51;97.30;94637.84;6292160;22;20163;-83
2023/03/24 06:16:59;;;;;;;3.97;3.67;;;;;;;11.45;98.70;94641.16;6315405;22;20166;-82
2023/03/24 06:19:26;;;;;;;3.50;3.20;;;;;;;11.73;96.91;94644.00;6287504;22;20471;-81
2023/03/24 06:21:54;;;;;;;4.93;3.63;;;;;;;11.72;96.92;94638.97;6316814;22;20162;-83
2023/03/24 06:24:20;;;;;;;4.17;3.77;;;;;;;11.89;95.73;94645.66;6311625;22;20165;-82
2023/03/24 06:26:48;;;;;;;3.70;3.30;;;;;;;11.72;97.06;94649.38;6313513;22;20183;-77
2023/03/24 06:56:19;;;;;;;5.23;4.73;;;;;;;11.55;100.00;94666.91;6240224;23;20184;-84
2023/03/24 06:59:10;;;;;;;8.40;4.83;;;;;;;11.34;100.00;94667.56;6227088;23;20198;-80
2023/03/24 07:01:37;;;;;;;4.63;4.23;;;;;;;11.38;100.00;94673.19;6193342;23;20169;-79
2023/03/24 07:07:42;;;;;;;6.00;4.20;;;;;;;11.27;100.00;94682.22;6092720;23;20305;-79
2023/03/24 07:17:12;;;;;;;4.80;4.30;;;;;;;11.21;100.00;94701.91;6064329;23;20176;-81
2023/03/24 07:23:07;;;;;;;4.67;3.93;;;;;;;11.15;100.00;94699.19;6064450;23;20171;-80
2023/03/24 07:25:33;;;;;;;3.57;3.20;;;;;;;11.20;100.00;94697.69;6064814;23;20252;-81
2023/03/24 07:27:58;;;;;;;3.20;2.90;;;;;;;11.03;100.00;94696.97;6041889;23;20197;-80
2023/03/24 07:50:35;;;;;;;3.00;2.47;;;;;;;11.28;100.00;94733.22;6337178;22;20548;-78
2023/03/24 07:53:19;;;;;;;2.80;2.50;;;;;;;11.46;100.00;94738.13;6311749;22;20282;-80
2023/03/24 07:56:29;;;;;;;3.40;2.83;;;;;;;11.28;100.00;94741.00;6291020;22;20166;-80
2023/03/24 08:03:06;;;;;;;;;;;;;;;;;;;;;
2023/03/24 08:06:10;;;;;;;2.23;1.90;;;;;;;11.61;100.00;94671.41;6047978;23;20674;-79
2023/03/24 08:12:56;;;;;;;2.63;2.13;;;;;;;11.81;100.00;94674.34;5982397;24;20228;-79
2023/03/24 08:16:25;;;;;;;1.80;1.70;;;;;;;11.92;100.00;94650.50;5876442;24;20641;-79
2023/03/24 08:29:52;;;;;;;;;;;;;;;;;;;;;
2023/03/24 09:18:48;;;;;;;1.57;1.47;;;;;;;12.30;93.25;94703.34;6191483;23;20213;-81
2023/03/24 09:21:37;;;;;;;1.27;1.17;;;;;;;12.33;91.71;94704.75;6140811;23;20186;-81
2023/03/24 09:24:03;;;;;;;1.30;1.20;;;;;;;12.63;90.48;94706.41;6164349;23;20162;-81
2023/03/24 09:26:29;;;;;;;1.43;1.33;;;;;;;12.76;91.48;94695.34;6138965;23;20151;-81
2023/03/24 09:28:54;;;;;;;1.60;1.50;;;;;;;13.01;89.17;94694.03;6161427;23;20198;-81
2023/03/24 09:31:20;;;;;;;1.30;1.20;;;;;;;13.31;86.84;94699.19;6137911;23;20502;-80
2023/03/24 09:33:45;;;;;;;1.37;1.23;;;;;;;13.33;85.63;94705.81;6137600;23;20249;-81
2023/03/24 09:36:11;;;;;;;1.60;1.50;;;;;;;13.54;85.40;94691.22;6167380;23;20183;-78
2023/03/24 09:38:36;;;;;;;1.57;1.47;;;;;;;13.42;84.00;94690.88;6163751;23;20174;-77
2023/03/24 09:41:02;;;;;;;2.00;1.23;;;;;;;13.53;82.62;94684.38;6165625;23;20205;-79
2023/03/24 09:43:37;;;;;;;1.20;1.20;;;;;;;13.91;82.64;94697.16;6137693;23;20689;-82
2023/03/24 09:46:04;;;;;;;1.67;1.30;;;;;;;13.98;82.27;94700.63;6161046;23;20155;-78
2023/03/24 09:48:41;;;;;;;1.70;1.60;;;;;;;14.40;81.89;94679.63;6137515;23;20494;-79
2023/03/24 09:51:21;;;;;;;1.67;1.33;;;;;;;14.76;80.78;94680.44;6163754;23;20573;-79
2023/03/24 09:54:04;;;;;;;1.83;1.53;;;;;;;14.85;79.90;94685.31;6162902;23;20180;-81
2023/03/24 09:56:31;;;;;;;1.40;1.30;;;;;;;14.11;79.55;94682.44;6164488;23;20257;-81
2023/03/24 09:59:19;;;;;;;1.13;1.00;;;;;;;14.01;80.13;94667.09;6139378;23;20179;-78
2023/03/24 10:01:45;;;;;;;1.10;1.00;;;;;;;14.44;79.08;94685.25;6139109;23;20612;-79
2023/03/24 10:04:16;;;;;;;1.37;1.27;;;;;;;14.32;78.44;94695.44;6142505;23;20165;-80
2023/03/24 10:06:42;;;;;;;1.30;1.20;;;;;;;14.91;77.70;94681.09;6165558;23;20405;-81
2023/03/24 10:09:23;;;;;;;1.47;1.37;;;;;;;15.20;75.98;94690.47;6160216;23;20693;-82
2023/03/24 10:11:53;;;;;;;1.50;1.40;;;;;;;14.95;75.98;94680.53;6162593;23;20143;-80
2023/03/24 10:14:56;;;;;;;2.67;1.40;;;;;;;14.96;74.75;94686.56;6161736;23;20218;-81
2023/03/24 10:17:50;;;;;;;2.53;1.20;;;;;;;14.82;74.31;94703.97;6173122;23;20187;-80
2023/03/24 10:20:33;;;;;;;1.27;1.00;;;;;;;14.88;75.11;94697.19;6151515;23;20182;-79
2023/03/24 10:23:31;;;;;;;1.53;1.13;;;;;;;14.77;75.48;94705.59;6177444;23;20143;-80
2023/03/24 10:26:19;;;;;;;2.17;1.30;;;;;;;14.90;74.97;94700.41;6148645;23;20147;-78
2023/03/24 10:28:55;;;;;;;1.00;0.90;;;;;;;14.13;77.45;94704.75;6172505;23;20182;-78
2023/03/24 10:31:27;;;;;;;1.37;1.20;;;;;;;14.29;73.46;94703.66;6148173;23;20799;-79
2023/03/24 10:33:53;;;;;;;1.17;1.07;;;;;;;14.56;74.15;94702.03;6172086;23;20195;-78
2023/03/24 10:36:19;;;;;;;3.13;1.10;;;;;;;14.66;73.64;94722.59;6171419;23;20179;-77
2023/03/24 10:38:47;;;;;;;1.33;1.23;;;;;;;14.40;74.26;94717.97;6171952;23;20175;-80
2023/03/24 10:41:18;;;;;;;1.10;1.00;;;;;;;14.47;75.20;94731.91;6171603;23;20183;-78
2023/03/24 10:43:44;;;;;;;2.03;0.90;;;;;;;14.68;72.86;94723.22;6171994;23;20155;-79
2023/03/24 10:46:13;;;;;;;1.50;1.10;;;;;;;14.65;74.43;94734.84;6170729;23;20174;-78
2023/03/24 10:48:39;;;;;;;0.80;0.80;;;;;;;14.48;73.27;94728.31;6146867;23;20227;-78
2023/03/24 10:51:05;;;;;;;1.80;1.03;;;;;;;14.48;72.82;94738.75;6173281;23;20163;-78
2023/03/24 10:53:30;;;;;;;1.37;0.97;;;;;;;14.97;70.76;94738.66;6172591;23;20183;-80
2023/03/24 10:55:56;;;;;;;1.50;1.13;;;;;;;15.14;70.43;94743.56;6164444;23;20523;-79
2023/03/24 10:58:41;;;;;;;0.80;0.80;;;;;;;15.07;69.49;94733.06;6164624;23;20575;-81
2023/03/24 11:01:37;;;;;;;1.13;0.87;;;;;;;15.58;69.92;94735.25;6164971;23;20211;-81
2023/03/24 11:04:04;;;;;;;0.70;0.70;;;;;;;15.17;68.25;94735.31;6165499;23;20238;-79
2023/03/24 11:06:30;;;;;;;0.97;0.90;;;;;;;15.20;68.95;94740.97;6188689;23;20151;-81
2023/03/24 11:09:28;;;;;;;1.77;1.10;;;;;;;15.40;67.37;94740.22;6138962;23;20240;-81
2023/03/24 11:11:57;;;;;;;0.87;0.87;;;;;;;15.67;65.57;94733.28;6022456;23;20162;-81
2023/03/24 11:14:25;;;;;;;0.70;0.70;;;;;;;15.71;66.80;94735.28;6023070;23;20628;-79
2023/03/24 11:16:52;;;;;;;0.83;0.83;;;;;;;15.42;65.49;94736.41;5999724;23;20271;-80
2023/03/24 11:19:20;;;;;;;1.10;1.00;;;;;;;15.35;66.38;94746.03;6000674;23;20633;-79
2023/03/24 11:21:46;;;;;;;0.87;0.80;;;;;;;14.32;68.54;94755.50;6003451;23;20190;-80
2023/03/24 11:24:14;;;;;;;0.97;0.90;;;;;;;14.64;69.59;94750.72;6026769;23;20503;-80
2023/03/24 11:26:45;;;;;;;1.27;0.90;;;;;;;14.90;69.93;94753.50;6026660;23;20159;-80
2023/03/24 11:29:16;;;;;;;0.70;0.70;;;;;;;14.53;71.73;94754.69;6026656;23;20221;-80
2023/03/24 11:31:44;;;;;;;0.80;0.73;;;;;;;14.57;69.94;94760.31;6050029;23;20151;-80
2023/03/24 11:37:40;;;;;;;1.37;1.00;;;;;;;14.30;70.40;94767.94;6004691;23;20204;-83
2023/03/24 11:40:26;;;;;;;1.80;0.57;;;;;;;14.46;71.15;94761.66;6027036;23;20162;-79
2023/03/24 11:43:37;;;;;;;;;;;;;;;;;;;;;
2023/03/24 12:03:24;;;;;;;0.60;0.60;;;;;;;14.50;68.63;94754.25;6165154;23;20195;-81
2023/03/24 12:10:27;;;;;;;;;;;;;;;;;;;;;
2023/03/24 12:37:48;;;;;;;0.87;0.70;;;;;;;14.14;70.24;94763.00;5821051;24;20207;-79
2023/03/24 12:41:07;;;;;;;5.83;1.10;;;;;;;14.25;70.01;94757.25;5724504;25;20170;-79
2023/03/24 13:01:11;;;;;;;;;;;;;;;;;;;;;
2023/03/24 13:03:41;;;;;;;2.87;0.80;;;;;;;13.20;73.07;94783.91;5962103;24;20550;-78
2023/03/24 13:06:14;;;;;;;1.07;0.70;;;;;;;13.03;74.10;94769.44;5939353;24;20160;-80
2023/03/24 13:08:41;;;;;;;1.47;0.80;;;;;;;12.36;78.44;94767.69;5937842;24;20247;-80
2023/03/24 13:11:09;;;;;;;1.90;1.00;;;;;;;12.40;79.49;94765.56;5939905;24;20242;-82
2023/03/24 13:13:36;;;;;;;2.47;0.80;;;;;;;12.39;79.32;94779.56;5939317;24;20167;-84
2023/03/24 13:16:07;;;;;;;1.93;0.70;;;;;;;12.37;79.12;94765.91;5937782;24;20188;-82
2023/03/24 14:44:52;;;;;;;1.93;1.40;;;;;;;11.52;83.99;94774.66;6187821;23;20683;-78
2023/03/24 14:47:22;;;;;;;2.23;1.40;;;;;;;11.48;84.24;94770.78;6187536;23;20182;-79
2023/03/24 14:49:50;;;;;;;1.43;1.27;;;;;;;11.47;84.82;94787.34;6169522;23;20245;-78
2023/03/24 14:52:25;;;;;;;2.63;1.60;;;;;;;11.41;84.65;94785.47;6145741;23;20162;-79
2023/03/24 14:54:52;;;;;;;2.30;1.10;;;;;;;11.29;85.10;94786.81;6169315;23;20170;-80
2023/03/24 14:57:22;;;;;;;3.47;1.30;;;;;;;11.45;85.00;94786.72;6144413;23;20190;-79
2023/03/24 15:00:07;;;;;;;1.60;1.30;;;;;;;11.78;84.60;94784.75;6146827;23;20155;-80
2023/03/24 15:02:42;;;;;;;2.90;1.50;;;;;;;11.78;83.45;94773.53;6148159;23;20162;-79
2023/03/24 15:05:14;;;;;;;2.77;1.70;;;;;;;11.81;83.73;94781.00;6172274;23;20177;-79
2023/03/24 15:07:40;;;;;;;2.60;2.07;;;;;;;11.98;83.61;94776.50;6181346;23;20175;-78
2023/03/24 15:10:12;;;;;;;1.97;1.77;;;;;;;12.03;83.61;94769.78;6186563;23;20178;-78
2023/03/24 15:12:42;;;;;;;1.60;1.27;;;;;;;12.07;82.82;94765.84;6186997;23;20147;-78
2023/03/24 15:15:26;;;;;;;1.57;1.20;;;;;;;12.40;82.68;94758.56;6162691;23;20154;-78
2023/03/24 15:17:52;;;;;;;2.60;1.30;;;;;;;12.16;81.91;94753.56;6187590;23;20230;-79
2023/03/24 15:20:24;;;;;;;0.70;0.70;;;;;;;12.20;81.79;94752.25;6187932;23;20159;-79
2023/03/24 15:22:53;;;;;;;3.13;1.03;;;;;;;11.83;83.99;94750.41;6163008;23;20166;-79
2023/03/24 15:25:25;;;;;;;1.07;0.97;;;;;;;12.01;82.71;94747.50;6186428;23;20157;-80
2023/03/24 15:44:54;;;;;;;1.30;1.17;;;;;;;13.34;73.99;94735.34;6128719;23;20222;-78
2023/03/24 17:07:14;;;;;;;0.97;0.80;;;;;;;12.11;73.47;94755.91;6100589;23;20725;-83
2023/03/24 18:03:17;;;;;;;6.00;2.23;;;;;;;9.78;81.80;94759.88;6112097;23;20225;-81
2023/03/24 18:06:45;;;;;;;;;;;;;;;;;;;;;
2023/03/24 20:58:03;;;;;;;4.33;1.53;;;;;;;8.64;83.86;94859.72;6113418;23;20207;-78
